Terminal Aerodrome Forecast
Issued by NWS

Home | Current Version | Previous Version | Text Only | Print | Product List | Glossary On
Versions: 1 2 3 4 5 6 7 8 9 10 11 12 13
000
FTUS46 KPDT 031120
TAFRDM
TAF
KRDM 031120Z 0312/0412 VRB04KT P6SM SCT250
     FM031800 34007KT P6SM SKC
     FM032200 34012G19KT P6SM FEW100 SCT250
     FM040400 34008KT P6SM FEW100 SCT250
     FM040800 VRB04KT P6SM SCT200=

USA.gov is the U.S. government's official web portal to all federal, state and local government web resources and services.